Relevés horaires Beauvechain (Belgique)


Relevés horaires à Beauvechain - Jeudi 02 Mars 2017
Heure UTC1 Température [°C] Vent [km/h] Hum. [%] Pres.4 [hPa] Visi. [Km] Nébu. [octa] Préc.5 [mm] Cond.
2m. Res. Ros. Dir.2 Vit. Moy. Raf.3
23:00 4.8 3.1 -- SSO 7.4 -- 9.3 -- 1016.1(-0.5/3h) 20 -- -- --
22:00 4.5 2.7 0.1 SSO 7.4 -- 9.3 73 1016.3(0.0/3h) 20 -- -- --
21:00 4.5 3.3 0.1 SSO 5.6 -- 13.0 73 1016.7(0.7/3h) 20 -- -- --
20:00 5.5 4.4 0.1 SSO 5.6 -- 11.1 68 1016.6(1.5/3h) 20 -- -- --
19:00 6.9 5.5 -0.1 OSO 7.4 -- 13.0 61 1016.2(1.7/3h) 20 -- -- --
18:00 7.4 5.7 -- OSO 9.3 -- 29.6 -- 1015.7(1.8/3h) 20 -- -- --
17:00 8.2 6.3 0.3 OSO 11.1 -- 20.4 57 1014.8(1.7/3h) 20 7/8 -- --
16:00 8.8 6.7 0.5 OSO 13.0 -- 20.4 56 1014.2(2.1/3h) 20 7/8 -- --
15:00 8.8 6.5 0.5 OSO 14.8 -- 29.6 56 1013.7(2.1/3h) 20 7/8 -- --
14:00 8.9 6.6 0.5 O 14.8 -- 29.6 56 1013(2.0/3h) 20 7/8 -- --
13:00 8.5 5.9 -- OSO 16.7 -- 29.6 -- 1012.2(2.0/3h) 20 7/8 -- --
12:00 8.0 5.5 -0.4 O 14.8 -- 37.0 55 1012(2.2/3h) 20 7/8 -- --
10:00 7.5 4.4 0.3 OSO 18.5 -- 29.6 60 1010.2(3.0/3h) 20 7/8 -- --
09:00 6.9 3.9 0.5 SO 16.7 -- 37.0 64 1009.2(3.4/3h) 20 5/8 -- --
08:00 6.2 3 -- OSO 16.7 -- 25.9 -- 1008.2(3.1/3h) 20 5/8 -- --
07:00 5.6 2.5 0.8 SO 14.8 -- 37.0 71 1007.1(2.6/3h) 20 4/8 -- --
06:00 6.2 2.8 -0.1 OSO 18.5 -- 35.2 64 1005.8(2.6/3h) 20 7/8 0.8/12h
--
05:00 6.0 2.5 0.1 OSO 18.5 -- 29.6 66 1005(2.7/3h) 20 4/8 -- --
04:00 6.1 2.9 -0.5 OSO 16.7 -- 35.2 63 1004.2(3.0/3h) 20 -- -- --
03:00 6.6 2.8 1.9 OSO 22.2 -- 35.2 72 1003.1(2.4/3h) 20 -- -- NA
02:00 6.9 3.9 3.5 OSO 16.7 -- 33.3 79 1002.1(1.5/3h) 20 -- -- --
01:00 7.6 4.3 4.6 OSO 20.4 -- 31.5 81 1001.1(1.6/3h) 20 -- -- NA
00:00 7.6 5.2 6.5 OSO 13.0 -- 25.9 93 1000.5(1.9/3h) 7 -- 0.4/6h
Il y a de la pluie faible et continue à la station au moment de l'observation

1 Coordinated Universal Time. Actuellement il est 16:00 locale et 15:00 UTC.

2 Le vent souffle depuis la direction indiquée vers la direction oposée.

3 Les rafales max. sont disponible 40 min après l'heure du relevé.

4 Pour les stations d'altitude (plus de 600m) le géopotentiel du niveau le plus proche de la pression obligatoire est indiqué.

5 Les stations disposant d'un diffuseur peuvent indiquer "trace". Cela signifie que des précipitations ont touchés le sol mais que la quantité est inférieure à 0.1 mm.

Récapitulatif de la journée
Température [°C] Vent [km/h] Ensoleillement4 [h] Precipitations totale5 [mm] Pression [Hpa]
Min1 Max.2 Moy.3 Max. Min Max.
5.7 9.0 0 37.0 0 h 0 min 0 1000.5 1016.7

1 Température minimale relevée entre 18:00 UTC la veille et 18:00 UTC le jour donné.

2 Température maximale relevée entre 06:00 UTC le jour donné et 06:00 UTC le lendemain.

3 Vent moyen de la journée basé sur les relevés horaires.

4 Ensoleillement en heures relevé entre 06:00 UTC la veille et 06:00 UTC le jour donné.

5 Précipitations totales tombées entre 06:00 UTC la jour donné et 06:00 UTC le lendemain.

Graphiques horaires